sensor_id;sensor_type;location;lat;lon;timestamp;P1;durP1;ratioP1;P2;durP2;ratioP2
39346;SDS011;26262;49.836;6.632;2022-12-05T00:01:37;8.13;;;5.43;;
39346;SDS011;26262;49.836;6.632;2022-12-05T00:04:11;7.68;;;5.00;;
39346;SDS011;26262;49.836;6.632;2022-12-05T00:06:38;8.07;;;4.97;;
39346;SDS011;26262;49.836;6.632;2022-12-05T00:09:05;7.53;;;4.85;;
39346;SDS011;26262;49.836;6.632;2022-12-05T00:11:33;7.72;;;5.10;;
39346;SDS011;26262;49.836;6.632;2022-12-05T00:14:00;8.10;;;5.72;;
39346;SDS011;26262;49.836;6.632;2022-12-05T00:16:27;9.93;;;5.90;;
39346;SDS011;26262;49.836;6.632;2022-12-05T00:18:54;8.10;;;4.90;;
39346;SDS011;26262;49.836;6.632;2022-12-05T00:21:21;8.13;;;5.60;;
39346;SDS011;26262;49.836;6.632;2022-12-05T00:23:48;8.63;;;5.32;;
39346;SDS011;26262;49.836;6.632;2022-12-05T00:26:14;10.00;;;6.75;;
39346;SDS011;26262;49.836;6.632;2022-12-05T00:28:40;10.13;;;6.22;;
39346;SDS011;26262;49.836;6.632;2022-12-05T00:31:07;11.25;;;6.63;;
39346;SDS011;26262;49.836;6.632;2022-12-05T00:36:04;10.25;;;6.88;;
39346;SDS011;26262;49.836;6.632;2022-12-05T00:38:32;9.52;;;6.18;;
39346;SDS011;26262;49.836;6.632;2022-12-05T00:41:01;10.38;;;6.55;;
39346;SDS011;26262;49.836;6.632;2022-12-05T00:43:29;9.55;;;6.53;;
39346;SDS011;26262;49.836;6.632;2022-12-05T00:45:59;10.13;;;6.60;;
39346;SDS011;26262;49.836;6.632;2022-12-05T00:48:25;10.23;;;6.85;;
39346;SDS011;26262;49.836;6.632;2022-12-05T00:50:58;12.52;;;7.30;;
39346;SDS011;26262;49.836;6.632;2022-12-05T00:53:34;10.18;;;6.95;;
39346;SDS011;26262;49.836;6.632;2022-12-05T00:56:01;10.00;;;6.35;;
39346;SDS011;26262;49.836;6.632;2022-12-05T00:58:31;11.50;;;7.93;;
39346;SDS011;26262;49.836;6.632;2022-12-05T01:01:03;9.40;;;6.57;;
39346;SDS011;26262;49.836;6.632;2022-12-05T01:03:51;10.25;;;6.80;;
39346;SDS011;26262;49.836;6.632;2022-12-05T01:06:18;8.88;;;6.30;;
39346;SDS011;26262;49.836;6.632;2022-12-05T01:08:44;9.70;;;6.22;;
39346;SDS011;26262;49.836;6.632;2022-12-05T01:11:11;11.27;;;6.35;;
39346;SDS011;26262;49.836;6.632;2022-12-05T01:13:39;9.95;;;6.25;;
39346;SDS011;26262;49.836;6.632;2022-12-05T01:16:05;11.00;;;6.50;;
39346;SDS011;26262;49.836;6.632;2022-12-05T01:18:31;8.20;;;5.85;;
39346;SDS011;26262;49.836;6.632;2022-12-05T01:20:56;9.05;;;6.05;;
39346;SDS011;26262;49.836;6.632;2022-12-05T01:23:22;10.75;;;7.00;;
39346;SDS011;26262;49.836;6.632;2022-12-05T01:25:48;8.65;;;6.82;;
39346;SDS011;26262;49.836;6.632;2022-12-05T01:28:16;10.15;;;6.43;;
39346;SDS011;26262;49.836;6.632;2022-12-05T01:30:43;11.23;;;6.60;;
39346;SDS011;26262;49.836;6.632;2022-12-05T01:33:10;6.75;;;5.13;;
39346;SDS011;26262;49.836;6.632;2022-12-05T01:35:37;12.50;;;7.13;;
39346;SDS011;26262;49.836;6.632;2022-12-05T01:38:04;10.15;;;6.57;;
39346;SDS011;26262;49.836;6.632;2022-12-05T01:40:30;10.10;;;6.35;;
39346;SDS011;26262;49.836;6.632;2022-12-05T01:42:57;8.32;;;6.03;;
39346;SDS011;26262;49.836;6.632;2022-12-05T01:45:36;10.23;;;6.40;;
39346;SDS011;26262;49.836;6.632;2022-12-05T01:48:05;9.13;;;5.65;;
39346;SDS011;26262;49.836;6.632;2022-12-05T01:50:35;10.00;;;6.13;;
39346;SDS011;26262;49.836;6.632;2022-12-05T01:53:01;8.70;;;5.93;;
39346;SDS011;26262;49.836;6.632;2022-12-05T01:55:29;9.38;;;6.20;;
39346;SDS011;26262;49.836;6.632;2022-12-05T01:57:55;10.73;;;6.68;;
39346;SDS011;26262;49.836;6.632;2022-12-05T02:00:21;9.15;;;5.97;;
39346;SDS011;26262;49.836;6.632;2022-12-05T02:02:56;8.68;;;6.10;;
39346;SDS011;26262;49.836;6.632;2022-12-05T02:05:29;8.20;;;6.05;;
39346;SDS011;26262;49.836;6.632;2022-12-05T02:10:23;9.82;;;7.03;;
39346;SDS011;26262;49.836;6.632;2022-12-05T02:12:50;9.37;;;6.43;;
39346;SDS011;26262;49.836;6.632;2022-12-05T02:18:04;8.65;;;5.80;;
39346;SDS011;26262;49.836;6.632;2022-12-05T02:23:20;9.68;;;6.20;;
39346;SDS011;26262;49.836;6.632;2022-12-05T02:29:03;7.68;;;4.75;;
39346;SDS011;26262;49.836;6.632;2022-12-05T02:32:01;9.50;;;6.03;;
39346;SDS011;26262;49.836;6.632;2022-12-05T02:37:21;8.65;;;5.10;;
39346;SDS011;26262;49.836;6.632;2022-12-05T02:42:35;8.40;;;5.53;;
39346;SDS011;26262;49.836;6.632;2022-12-05T02:45:10;9.02;;;5.63;;
39346;SDS011;26262;49.836;6.632;2022-12-05T02:47:41;9.43;;;6.35;;
39346;SDS011;26262;49.836;6.632;2022-12-05T02:50:14;15.20;;;6.78;;
39346;SDS011;26262;49.836;6.632;2022-12-05T02:52:44;8.40;;;6.07;;
39346;SDS011;26262;49.836;6.632;2022-12-05T02:55:13;9.40;;;6.72;;
39346;SDS011;26262;49.836;6.632;2022-12-05T02:57:41;8.57;;;6.03;;
39346;SDS011;26262;49.836;6.632;2022-12-05T03:00:10;8.55;;;6.43;;
39346;SDS011;26262;49.836;6.632;2022-12-05T03:02:39;8.18;;;5.90;;
39346;SDS011;26262;49.836;6.632;2022-12-05T03:07:58;8.38;;;6.32;;
39346;SDS011;26262;49.836;6.632;2022-12-05T03:10:28;8.80;;;6.13;;
39346;SDS011;26262;49.836;6.632;2022-12-05T03:12:59;8.52;;;6.55;;
39346;SDS011;26262;49.836;6.632;2022-12-05T03:15:39;9.63;;;6.63;;
39346;SDS011;26262;49.836;6.632;2022-12-05T03:18:12;8.85;;;6.45;;
39346;SDS011;26262;49.836;6.632;2022-12-05T03:20:51;10.30;;;6.72;;
39346;SDS011;26262;49.836;6.632;2022-12-05T03:23:22;9.63;;;6.47;;
39346;SDS011;26262;49.836;6.632;2022-12-05T03:28:19;10.95;;;7.15;;
39346;SDS011;26262;49.836;6.632;2022-12-05T03:30:50;10.60;;;6.38;;
39346;SDS011;26262;49.836;6.632;2022-12-05T03:33:22;9.00;;;6.28;;
39346;SDS011;26262;49.836;6.632;2022-12-05T03:36:00;10.45;;;6.38;;
39346;SDS011;26262;49.836;6.632;2022-12-05T03:38:30;10.43;;;6.32;;
39346;SDS011;26262;49.836;6.632;2022-12-05T03:43:56;10.57;;;6.38;;
39346;SDS011;26262;49.836;6.632;2022-12-05T03:46:37;8.80;;;5.55;;
39346;SDS011;26262;49.836;6.632;2022-12-05T03:54:33;8.88;;;6.10;;
39346;SDS011;26262;49.836;6.632;2022-12-05T03:57:03;9.82;;;6.03;;
39346;SDS011;26262;49.836;6.632;2022-12-05T03:59:34;9.57;;;6.28;;
39346;SDS011;26262;49.836;6.632;2022-12-05T04:02:06;8.20;;;5.95;;
39346;SDS011;26262;49.836;6.632;2022-12-05T04:04:43;10.82;;;7.07;;
39346;SDS011;26262;49.836;6.632;2022-12-05T04:07:30;10.60;;;7.10;;
39346;SDS011;26262;49.836;6.632;2022-12-05T04:10:00;10.18;;;6.28;;
39346;SDS011;26262;49.836;6.632;2022-12-05T04:12:31;8.82;;;6.20;;
39346;SDS011;26262;49.836;6.632;2022-12-05T04:15:04;8.55;;;5.57;;
39346;SDS011;26262;49.836;6.632;2022-12-05T04:17:54;8.18;;;6.00;;
39346;SDS011;26262;49.836;6.632;2022-12-05T04:20:25;7.78;;;5.57;;
39346;SDS011;26262;49.836;6.632;2022-12-05T04:23:30;8.07;;;5.80;;
39346;SDS011;26262;49.836;6.632;2022-12-05T04:31:15;7.95;;;5.30;;
39346;SDS011;26262;49.836;6.632;2022-12-05T04:33:50;8.20;;;5.53;;
39346;SDS011;26262;49.836;6.632;2022-12-05T04:36:28;8.85;;;5.60;;
39346;SDS011;26262;49.836;6.632;2022-12-05T04:39:02;8.95;;;6.50;;
39346;SDS011;26262;49.836;6.632;2022-12-05T04:41:45;7.97;;;5.30;;
39346;SDS011;26262;49.836;6.632;2022-12-05T04:44:15;7.50;;;5.07;;
39346;SDS011;26262;49.836;6.632;2022-12-05T04:46:43;7.70;;;5.28;;
39346;SDS011;26262;49.836;6.632;2022-12-05T04:49:13;8.60;;;4.90;;
39346;SDS011;26262;49.836;6.632;2022-12-05T04:51:43;9.88;;;4.95;;
39346;SDS011;26262;49.836;6.632;2022-12-05T04:54:14;7.32;;;5.38;;
39346;SDS011;26262;49.836;6.632;2022-12-05T04:56:46;7.68;;;4.97;;
39346;SDS011;26262;49.836;6.632;2022-12-05T04:59:14;7.32;;;4.80;;
39346;SDS011;26262;49.836;6.632;2022-12-05T05:01:44;7.82;;;4.97;;
39346;SDS011;26262;49.836;6.632;2022-12-05T05:04:19;7.38;;;5.32;;
39346;SDS011;26262;49.836;6.632;2022-12-05T05:06:55;7.13;;;5.18;;
39346;SDS011;26262;49.836;6.632;2022-12-05T05:09:21;9.15;;;5.47;;
39346;SDS011;26262;49.836;6.632;2022-12-05T05:11:46;7.70;;;5.07;;
39346;SDS011;26262;49.836;6.632;2022-12-05T05:14:12;8.35;;;5.75;;
39346;SDS011;26262;49.836;6.632;2022-12-05T05:16:38;7.88;;;5.25;;
39346;SDS011;26262;49.836;6.632;2022-12-05T05:19:05;9.48;;;5.50;;
39346;SDS011;26262;49.836;6.632;2022-12-05T05:21:34;7.07;;;4.82;;
39346;SDS011;26262;49.836;6.632;2022-12-05T05:24:01;7.03;;;4.43;;
39346;SDS011;26262;49.836;6.632;2022-12-05T05:26:29;7.13;;;4.95;;
39346;SDS011;26262;49.836;6.632;2022-12-05T05:28:57;9.30;;;5.80;;
39346;SDS011;26262;49.836;6.632;2022-12-05T05:31:23;8.60;;;5.35;;
39346;SDS011;26262;49.836;6.632;2022-12-05T05:33:49;7.38;;;4.82;;
39346;SDS011;26262;49.836;6.632;2022-12-05T05:36:16;8.15;;;5.30;;
39346;SDS011;26262;49.836;6.632;2022-12-05T05:38:46;6.45;;;4.88;;
39346;SDS011;26262;49.836;6.632;2022-12-05T05:41:17;8.07;;;4.95;;
39346;SDS011;26262;49.836;6.632;2022-12-05T05:43:47;9.48;;;5.82;;
39346;SDS011;26262;49.836;6.632;2022-12-05T05:46:14;11.82;;;7.43;;
39346;SDS011;26262;49.836;6.632;2022-12-05T05:48:41;7.93;;;5.53;;
39346;SDS011;26262;49.836;6.632;2022-12-05T05:51:07;10.07;;;6.40;;
39346;SDS011;26262;49.836;6.632;2022-12-05T05:56:03;10.10;;;6.90;;
39346;SDS011;26262;49.836;6.632;2022-12-05T05:58:30;10.73;;;6.38;;
39346;SDS011;26262;49.836;6.632;2022-12-05T06:01:03;11.48;;;6.85;;
39346;SDS011;26262;49.836;6.632;2022-12-05T06:03:28;8.80;;;6.65;;
39346;SDS011;26262;49.836;6.632;2022-12-05T06:05:58;11.20;;;7.20;;
39346;SDS011;26262;49.836;6.632;2022-12-05T06:08:24;10.32;;;7.07;;
39346;SDS011;26262;49.836;6.632;2022-12-05T06:13:18;12.52;;;7.68;;
39346;SDS011;26262;49.836;6.632;2022-12-05T06:15:43;12.48;;;8.25;;
39346;SDS011;26262;49.836;6.632;2022-12-05T06:18:09;11.02;;;7.32;;
39346;SDS011;26262;49.836;6.632;2022-12-05T06:20:34;9.05;;;7.22;;
39346;SDS011;26262;49.836;6.632;2022-12-05T06:23:00;10.63;;;7.57;;
39346;SDS011;26262;49.836;6.632;2022-12-05T06:25:25;9.13;;;6.55;;
39346;SDS011;26262;49.836;6.632;2022-12-05T06:27:51;11.20;;;6.72;;
39346;SDS011;26262;49.836;6.632;2022-12-05T06:30:16;9.55;;;6.20;;
39346;SDS011;26262;49.836;6.632;2022-12-05T06:32:42;9.35;;;6.40;;
39346;SDS011;26262;49.836;6.632;2022-12-05T06:35:07;8.48;;;5.93;;
39346;SDS011;26262;49.836;6.632;2022-12-05T06:37:40;9.60;;;6.40;;
39346;SDS011;26262;49.836;6.632;2022-12-05T06:40:06;9.25;;;5.95;;
39346;SDS011;26262;49.836;6.632;2022-12-05T06:42:32;8.48;;;5.95;;
39346;SDS011;26262;49.836;6.632;2022-12-05T06:44:58;10.25;;;6.47;;
39346;SDS011;26262;49.836;6.632;2022-12-05T06:47:23;8.30;;;5.80;;
39346;SDS011;26262;49.836;6.632;2022-12-05T06:49:49;8.00;;;5.90;;
39346;SDS011;26262;49.836;6.632;2022-12-05T06:52:14;9.75;;;6.93;;
39346;SDS011;26262;49.836;6.632;2022-12-05T06:54:40;10.98;;;7.22;;
39346;SDS011;26262;49.836;6.632;2022-12-05T06:57:05;11.95;;;8.48;;
39346;SDS011;26262;49.836;6.632;2022-12-05T06:59:31;11.13;;;8.02;;
39346;SDS011;26262;49.836;6.632;2022-12-05T07:01:57;10.98;;;8.05;;
39346;SDS011;26262;49.836;6.632;2022-12-05T07:04:22;10.30;;;7.95;;
39346;SDS011;26262;49.836;6.632;2022-12-05T07:06:49;12.30;;;7.40;;
39346;SDS011;26262;49.836;6.632;2022-12-05T07:09:15;8.55;;;6.32;;
39346;SDS011;26262;49.836;6.632;2022-12-05T07:11:45;9.23;;;5.87;;
39346;SDS011;26262;49.836;6.632;2022-12-05T07:14:12;9.38;;;6.50;;
39346;SDS011;26262;49.836;6.632;2022-12-05T07:16:37;9.70;;;7.13;;
39346;SDS011;26262;49.836;6.632;2022-12-05T07:19:03;9.88;;;6.60;;
39346;SDS011;26262;49.836;6.632;2022-12-05T07:21:28;8.52;;;6.10;;
39346;SDS011;26262;49.836;6.632;2022-12-05T07:23:54;7.88;;;5.70;;
39346;SDS011;26262;49.836;6.632;2022-12-05T07:26:21;9.30;;;6.07;;
39346;SDS011;26262;49.836;6.632;2022-12-05T07:28:47;9.32;;;5.50;;
39346;SDS011;26262;49.836;6.632;2022-12-05T07:31:15;8.00;;;6.18;;
39346;SDS011;26262;49.836;6.632;2022-12-05T07:33:46;9.85;;;6.47;;
39346;SDS011;26262;49.836;6.632;2022-12-05T07:36:14;8.98;;;6.03;;
39346;SDS011;26262;49.836;6.632;2022-12-05T07:38:43;8.35;;;5.80;;
39346;SDS011;26262;49.836;6.632;2022-12-05T07:41:13;7.72;;;5.57;;
39346;SDS011;26262;49.836;6.632;2022-12-05T07:43:44;8.68;;;5.85;;
39346;SDS011;26262;49.836;6.632;2022-12-05T07:46:09;9.15;;;6.10;;
39346;SDS011;26262;49.836;6.632;2022-12-05T07:48:38;7.90;;;5.50;;
39346;SDS011;26262;49.836;6.632;2022-12-05T07:51:04;7.55;;;5.43;;
39346;SDS011;26262;49.836;6.632;2022-12-05T07:53:31;8.85;;;6.07;;
39346;SDS011;26262;49.836;6.632;2022-12-05T07:55:57;7.60;;;6.13;;
39346;SDS011;26262;49.836;6.632;2022-12-05T07:58:24;8.90;;;6.32;;
39346;SDS011;26262;49.836;6.632;2022-12-05T08:00:50;9.70;;;6.03;;
39346;SDS011;26262;49.836;6.632;2022-12-05T08:03:16;18.00;;;13.45;;
39346;SDS011;26262;49.836;6.632;2022-12-05T08:05:41;10.40;;;8.45;;
39346;SDS011;26262;49.836;6.632;2022-12-05T08:08:07;9.88;;;7.85;;
39346;SDS011;26262;49.836;6.632;2022-12-05T08:10:33;10.82;;;8.50;;
39346;SDS011;26262;49.836;6.632;2022-12-05T08:12:59;11.80;;;8.07;;
39346;SDS011;26262;49.836;6.632;2022-12-05T08:15:25;27.33;;;21.70;;
39346;SDS011;26262;49.836;6.632;2022-12-05T08:17:50;13.93;;;11.80;;
39346;SDS011;26262;49.836;6.632;2022-12-05T08:20:16;19.27;;;16.23;;
39346;SDS011;26262;49.836;6.632;2022-12-05T08:22:41;15.15;;;11.18;;
39346;SDS011;26262;49.836;6.632;2022-12-05T08:25:07;8.98;;;6.15;;
39346;SDS011;26262;49.836;6.632;2022-12-05T08:27:33;10.75;;;5.63;;
39346;SDS011;26262;49.836;6.632;2022-12-05T08:29:59;10.63;;;6.05;;
39346;SDS011;26262;49.836;6.632;2022-12-05T08:32:25;9.57;;;5.68;;
39346;SDS011;26262;49.836;6.632;2022-12-05T08:34:51;8.32;;;5.93;;
39346;SDS011;26262;49.836;6.632;2022-12-05T08:37:17;11.18;;;6.68;;
39346;SDS011;26262;49.836;6.632;2022-12-05T08:39:42;11.43;;;6.05;;
39346;SDS011;26262;49.836;6.632;2022-12-05T08:42:08;7.22;;;5.70;;
39346;SDS011;26262;49.836;6.632;2022-12-05T08:44:34;10.70;;;7.70;;
39346;SDS011;26262;49.836;6.632;2022-12-05T08:46:59;8.63;;;7.15;;
39346;SDS011;26262;49.836;6.632;2022-12-05T08:49:25;9.95;;;8.60;;
39346;SDS011;26262;49.836;6.632;2022-12-05T08:51:50;9.82;;;7.47;;
39346;SDS011;26262;49.836;6.632;2022-12-05T08:54:16;16.10;;;9.57;;
39346;SDS011;26262;49.836;6.632;2022-12-05T08:56:42;12.15;;;7.70;;
39346;SDS011;26262;49.836;6.632;2022-12-05T08:59:07;11.85;;;7.53;;
39346;SDS011;26262;49.836;6.632;2022-12-05T09:01:33;11.30;;;7.97;;
39346;SDS011;26262;49.836;6.632;2022-12-05T09:04:02;13.23;;;9.32;;
39346;SDS011;26262;49.836;6.632;2022-12-05T09:06:29;15.77;;;10.13;;
39346;SDS011;26262;49.836;6.632;2022-12-05T09:08:56;11.35;;;8.38;;
39346;SDS011;26262;49.836;6.632;2022-12-05T09:11:25;11.38;;;7.55;;
39346;SDS011;26262;49.836;6.632;2022-12-05T09:13:53;10.73;;;7.78;;
39346;SDS011;26262;49.836;6.632;2022-12-05T09:16:23;14.13;;;11.07;;
39346;SDS011;26262;49.836;6.632;2022-12-05T09:18:57;14.68;;;11.48;;
39346;SDS011;26262;49.836;6.632;2022-12-05T09:21:23;13.57;;;10.38;;
39346;SDS011;26262;49.836;6.632;2022-12-05T09:23:52;11.68;;;8.40;;
39346;SDS011;26262;49.836;6.632;2022-12-05T09:26:20;11.27;;;9.27;;
39346;SDS011;26262;49.836;6.632;2022-12-05T09:28:47;12.68;;;8.20;;
39346;SDS011;26262;49.836;6.632;2022-12-05T09:31:17;14.18;;;8.18;;
39346;SDS011;26262;49.836;6.632;2022-12-05T09:33:45;9.77;;;7.68;;
39346;SDS011;26262;49.836;6.632;2022-12-05T09:36:13;10.82;;;8.27;;
39346;SDS011;26262;49.836;6.632;2022-12-05T09:38:40;10.60;;;7.72;;
39346;SDS011;26262;49.836;6.632;2022-12-05T09:44:21;12.45;;;9.23;;
39346;SDS011;26262;49.836;6.632;2022-12-05T09:47:02;11.52;;;9.20;;
39346;SDS011;26262;49.836;6.632;2022-12-05T09:49:54;13.85;;;10.77;;
39346;SDS011;26262;49.836;6.632;2022-12-05T09:54:51;13.77;;;10.95;;
39346;SDS011;26262;49.836;6.632;2022-12-05T09:57:19;13.43;;;10.80;;
39346;SDS011;26262;49.836;6.632;2022-12-05T09:59:54;11.02;;;8.95;;
39346;SDS011;26262;49.836;6.632;2022-12-05T10:02:25;11.10;;;8.07;;
39346;SDS011;26262;49.836;6.632;2022-12-05T10:05:03;10.88;;;7.82;;
39346;SDS011;26262;49.836;6.632;2022-12-05T10:07:46;11.25;;;7.20;;
39346;SDS011;26262;49.836;6.632;2022-12-05T10:16:28;9.55;;;6.45;;
39346;SDS011;26262;49.836;6.632;2022-12-05T10:19:16;13.50;;;8.27;;
39346;SDS011;26262;49.836;6.632;2022-12-05T10:21:51;8.73;;;6.85;;
39346;SDS011;26262;49.836;6.632;2022-12-05T10:24:26;8.27;;;5.90;;
39346;SDS011;26262;49.836;6.632;2022-12-05T10:27:07;8.63;;;6.18;;
39346;SDS011;26262;49.836;6.632;2022-12-05T10:29:58;10.65;;;6.65;;
39346;SDS011;26262;49.836;6.632;2022-12-05T10:32:44;10.68;;;7.47;;
39346;SDS011;26262;49.836;6.632;2022-12-05T10:37:42;8.52;;;6.20;;
39346;SDS011;26262;49.836;6.632;2022-12-05T10:40:31;10.35;;;7.18;;
39346;SDS011;26262;49.836;6.632;2022-12-05T10:42:59;8.38;;;6.32;;
39346;SDS011;26262;49.836;6.632;2022-12-05T10:45:25;9.00;;;7.72;;
39346;SDS011;26262;49.836;6.632;2022-12-05T10:47:52;10.43;;;7.20;;
39346;SDS011;26262;49.836;6.632;2022-12-05T10:50:21;9.60;;;5.80;;
39346;SDS011;26262;49.836;6.632;2022-12-05T10:52:51;8.98;;;6.80;;
39346;SDS011;26262;49.836;6.632;2022-12-05T10:55:18;8.43;;;5.50;;
39346;SDS011;26262;49.836;6.632;2022-12-05T10:57:51;8.73;;;4.57;;
39346;SDS011;26262;49.836;6.632;2022-12-05T11:00:32;6.63;;;4.43;;
39346;SDS011;26262;49.836;6.632;2022-12-05T11:02:58;10.07;;;5.20;;
39346;SDS011;26262;49.836;6.632;2022-12-05T11:05:31;6.53;;;4.65;;
39346;SDS011;26262;49.836;6.632;2022-12-05T11:07:59;9.35;;;5.68;;
39346;SDS011;26262;49.836;6.632;2022-12-05T11:10:26;8.15;;;5.15;;
39346;SDS011;26262;49.836;6.632;2022-12-05T11:12:57;9.10;;;6.15;;
39346;SDS011;26262;49.836;6.632;2022-12-05T11:15:24;8.95;;;5.10;;
39346;SDS011;26262;49.836;6.632;2022-12-05T11:17:55;8.73;;;4.95;;
39346;SDS011;26262;49.836;6.632;2022-12-05T11:22:54;13.80;;;8.55;;
39346;SDS011;26262;49.836;6.632;2022-12-05T11:25:35;13.10;;;7.72;;
39346;SDS011;26262;49.836;6.632;2022-12-05T11:33:30;10.02;;;6.05;;
39346;SDS011;26262;49.836;6.632;2022-12-05T11:38:48;10.10;;;6.10;;
39346;SDS011;26262;49.836;6.632;2022-12-05T11:41:23;11.02;;;6.32;;
39346;SDS011;26262;49.836;6.632;2022-12-05T11:57:49;11.38;;;6.25;;
39346;SDS011;26262;49.836;6.632;2022-12-05T12:00:32;13.35;;;6.70;;
39346;SDS011;26262;49.836;6.632;2022-12-05T12:06:14;10.77;;;6.65;;
39346;SDS011;26262;49.836;6.632;2022-12-05T12:14:24;10.98;;;6.28;;
39346;SDS011;26262;49.836;6.632;2022-12-05T12:20:11;10.98;;;6.85;;
39346;SDS011;26262;49.836;6.632;2022-12-05T12:26:26;11.00;;;6.80;;
39346;SDS011;26262;49.836;6.632;2022-12-05T12:31:20;11.45;;;7.10;;
39346;SDS011;26262;49.836;6.632;2022-12-05T12:34:08;14.68;;;7.95;;
39346;SDS011;26262;49.836;6.632;2022-12-05T12:37:02;12.25;;;7.40;;
39346;SDS011;26262;49.836;6.632;2022-12-05T12:42:23;15.50;;;9.50;;
39346;SDS011;26262;49.836;6.632;2022-12-05T12:55:41;12.45;;;7.50;;
39346;SDS011;26262;49.836;6.632;2022-12-05T13:00:59;11.10;;;7.15;;
39346;SDS011;26262;49.836;6.632;2022-12-05T13:03:41;11.00;;;7.35;;
39346;SDS011;26262;49.836;6.632;2022-12-05T13:06:15;10.75;;;7.68;;
39346;SDS011;26262;49.836;6.632;2022-12-05T13:11:14;10.40;;;7.15;;
39346;SDS011;26262;49.836;6.632;2022-12-05T13:13:43;11.43;;;7.57;;
39346;SDS011;26262;49.836;6.632;2022-12-05T13:16:15;10.45;;;6.78;;
39346;SDS011;26262;49.836;6.632;2022-12-05T13:18:46;9.57;;;6.85;;
39346;SDS011;26262;49.836;6.632;2022-12-05T13:21:12;9.25;;;7.03;;
39346;SDS011;26262;49.836;6.632;2022-12-05T13:23:46;9.55;;;7.03;;
39346;SDS011;26262;49.836;6.632;2022-12-05T13:26:14;9.95;;;6.80;;
39346;SDS011;26262;49.836;6.632;2022-12-05T13:28:51;10.55;;;6.88;;
39346;SDS011;26262;49.836;6.632;2022-12-05T13:31:32;10.35;;;7.05;;
39346;SDS011;26262;49.836;6.632;2022-12-05T13:34:00;13.05;;;8.93;;
39346;SDS011;26262;49.836;6.632;2022-12-05T13:36:25;13.80;;;9.40;;
39346;SDS011;26262;49.836;6.632;2022-12-05T13:41:56;13.55;;;9.90;;
39346;SDS011;26262;49.836;6.632;2022-12-05T13:44:45;15.93;;;11.50;;
39346;SDS011;26262;49.836;6.632;2022-12-05T13:47:20;13.13;;;9.82;;
39346;SDS011;26262;49.836;6.632;2022-12-05T13:52:32;12.10;;;8.82;;
39346;SDS011;26262;49.836;6.632;2022-12-05T13:57:52;13.15;;;9.60;;
39346;SDS011;26262;49.836;6.632;2022-12-05T14:00:24;18.42;;;14.07;;
39346;SDS011;26262;49.836;6.632;2022-12-05T14:02:54;18.00;;;12.00;;
39346;SDS011;26262;49.836;6.632;2022-12-05T14:15:46;11.05;;;7.65;;
39346;SDS011;26262;49.836;6.632;2022-12-05T14:18:37;12.73;;;8.13;;
39346;SDS011;26262;49.836;6.632;2022-12-05T14:21:20;16.05;;;11.90;;
39346;SDS011;26262;49.836;6.632;2022-12-05T14:29:35;14.05;;;9.65;;
39346;SDS011;26262;49.836;6.632;2022-12-05T14:34:37;7.70;;;5.03;;
39346;SDS011;26262;49.836;6.632;2022-12-05T14:37:29;5.85;;;4.40;;
39346;SDS011;26262;49.836;6.632;2022-12-05T14:39:56;8.40;;;5.43;;
39346;SDS011;26262;49.836;6.632;2022-12-05T14:47:55;12.25;;;9.00;;
39346;SDS011;26262;49.836;6.632;2022-12-05T14:55:57;11.25;;;8.20;;
39346;SDS011;26262;49.836;6.632;2022-12-05T15:01:31;10.07;;;7.57;;
39346;SDS011;26262;49.836;6.632;2022-12-05T15:09:39;9.38;;;7.50;;
39346;SDS011;26262;49.836;6.632;2022-12-05T15:15:04;12.15;;;9.50;;
39346;SDS011;26262;49.836;6.632;2022-12-05T15:17:50;12.63;;;10.00;;
39346;SDS011;26262;49.836;6.632;2022-12-05T15:20:26;13.18;;;9.18;;
39346;SDS011;26262;49.836;6.632;2022-12-05T15:26:02;11.13;;;9.15;;
39346;SDS011;26262;49.836;6.632;2022-12-05T15:28:29;12.18;;;10.60;;
39346;SDS011;26262;49.836;6.632;2022-12-05T15:30:55;12.73;;;10.07;;
39346;SDS011;26262;49.836;6.632;2022-12-05T15:33:21;13.70;;;10.70;;
39346;SDS011;26262;49.836;6.632;2022-12-05T15:35:50;15.43;;;10.95;;
39346;SDS011;26262;49.836;6.632;2022-12-05T15:38:22;11.85;;;9.52;;
39346;SDS011;26262;49.836;6.632;2022-12-05T15:40:54;10.25;;;8.70;;
39346;SDS011;26262;49.836;6.632;2022-12-05T15:43:30;11.10;;;8.65;;
39346;SDS011;26262;49.836;6.632;2022-12-05T15:46:07;12.52;;;9.05;;
39346;SDS011;26262;49.836;6.632;2022-12-05T15:48:45;12.18;;;8.57;;
39346;SDS011;26262;49.836;6.632;2022-12-05T15:51:10;11.63;;;8.00;;
39346;SDS011;26262;49.836;6.632;2022-12-05T15:53:40;10.10;;;8.27;;
39346;SDS011;26262;49.836;6.632;2022-12-05T15:58:46;11.25;;;8.63;;
39346;SDS011;26262;49.836;6.632;2022-12-05T16:01:27;12.50;;;8.50;;
39346;SDS011;26262;49.836;6.632;2022-12-05T16:06:55;11.55;;;8.07;;
39346;SDS011;26262;49.836;6.632;2022-12-05T16:09:27;11.90;;;8.10;;
39346;SDS011;26262;49.836;6.632;2022-12-05T16:11:56;11.80;;;8.63;;
39346;SDS011;26262;49.836;6.632;2022-12-05T16:14:25;11.75;;;8.90;;
39346;SDS011;26262;49.836;6.632;2022-12-05T16:16:58;11.15;;;8.75;;
39346;SDS011;26262;49.836;6.632;2022-12-05T16:19:25;11.50;;;8.82;;
39346;SDS011;26262;49.836;6.632;2022-12-05T16:24:42;14.32;;;9.73;;
39346;SDS011;26262;49.836;6.632;2022-12-05T16:27:16;17.30;;;13.07;;
39346;SDS011;26262;49.836;6.632;2022-12-05T16:32:37;14.82;;;10.70;;
39346;SDS011;26262;49.836;6.632;2022-12-05T16:35:03;13.88;;;10.40;;
39346;SDS011;26262;49.836;6.632;2022-12-05T16:38:03;14.70;;;10.10;;
39346;SDS011;26262;49.836;6.632;2022-12-05T16:40:31;14.10;;;10.05;;
39346;SDS011;26262;49.836;6.632;2022-12-05T16:43:01;12.90;;;9.70;;
39346;SDS011;26262;49.836;6.632;2022-12-05T16:45:41;12.48;;;10.00;;
39346;SDS011;26262;49.836;6.632;2022-12-05T16:48:19;9.52;;;6.95;;
39346;SDS011;26262;49.836;6.632;2022-12-05T16:53:16;10.10;;;6.45;;
39346;SDS011;26262;49.836;6.632;2022-12-05T16:55:43;8.90;;;5.22;;
39346;SDS011;26262;49.836;6.632;2022-12-05T16:58:22;7.75;;;5.72;;
39346;SDS011;26262;49.836;6.632;2022-12-05T17:00:49;8.68;;;5.68;;
39346;SDS011;26262;49.836;6.632;2022-12-05T17:03:15;8.85;;;6.45;;
39346;SDS011;26262;49.836;6.632;2022-12-05T17:05:41;9.75;;;6.20;;
39346;SDS011;26262;49.836;6.632;2022-12-05T17:08:07;18.42;;;11.60;;
39346;SDS011;26262;49.836;6.632;2022-12-05T17:10:32;11.60;;;7.55;;
39346;SDS011;26262;49.836;6.632;2022-12-05T17:12:58;17.70;;;10.23;;
39346;SDS011;26262;49.836;6.632;2022-12-05T17:15:25;15.85;;;8.90;;
39346;SDS011;26262;49.836;6.632;2022-12-05T17:17:51;15.85;;;7.95;;
39346;SDS011;26262;49.836;6.632;2022-12-05T17:20:16;10.60;;;6.60;;
39346;SDS011;26262;49.836;6.632;2022-12-05T17:22:42;12.13;;;8.38;;
39346;SDS011;26262;49.836;6.632;2022-12-05T17:28:03;7.03;;;5.68;;
39346;SDS011;26262;49.836;6.632;2022-12-05T17:30:29;6.90;;;5.38;;
39346;SDS011;26262;49.836;6.632;2022-12-05T17:32:54;7.70;;;5.85;;
39346;SDS011;26262;49.836;6.632;2022-12-05T17:35:20;8.10;;;6.32;;
39346;SDS011;26262;49.836;6.632;2022-12-05T17:37:46;8.10;;;7.03;;
39346;SDS011;26262;49.836;6.632;2022-12-05T17:40:13;8.77;;;6.88;;
39346;SDS011;26262;49.836;6.632;2022-12-05T17:42:39;9.40;;;6.22;;
39346;SDS011;26262;49.836;6.632;2022-12-05T17:45:05;8.82;;;6.97;;
39346;SDS011;26262;49.836;6.632;2022-12-05T17:47:34;8.20;;;6.22;;
39346;SDS011;26262;49.836;6.632;2022-12-05T17:50:00;8.73;;;5.65;;
39346;SDS011;26262;49.836;6.632;2022-12-05T17:52:26;7.82;;;6.28;;
39346;SDS011;26262;49.836;6.632;2022-12-05T17:54:52;9.48;;;6.00;;
39346;SDS011;26262;49.836;6.632;2022-12-05T17:57:18;11.32;;;7.72;;
39346;SDS011;26262;49.836;6.632;2022-12-05T17:59:43;9.55;;;7.30;;
39346;SDS011;26262;49.836;6.632;2022-12-05T18:02:10;7.60;;;5.95;;
39346;SDS011;26262;49.836;6.632;2022-12-05T18:04:36;8.48;;;6.28;;
39346;SDS011;26262;49.836;6.632;2022-12-05T18:07:01;9.32;;;7.40;;